Nearby METAR Reports

 

KHCR - Heber/Russ Mcdon, Utah, USA
Distance from station: SSW 18mi, 29km
Updated: Wed, 18-Sep-2019 9:55pm MDT
Clear
Clear
 Wind from calm
Wind: Calm
Temperature: 50°F , 10°C
Dew Point: 34°F , 1°C
Humidity: 54%
Barometer: 29.92 inHg , 1013.2 hPa
Clouds: Clear
Visibility: 10 miles , 16 km
2019/09/19 03:55 KHCR 190355Z AUTO 00000KT 10SM CLR 10/01 A2992 RMK AO2
KSLC - Salt Lake City, Utah, USA
Distance from station: W 35mi, 57km
Updated: Wed, 18-Sep-2019 9:54pm MDT
Few Clouds
Few Clouds
 Wind from SE
Wind: SE 12 mph , 19 km/h
Temperature: 73°F , 23°C
Dew Point: 25°F , -4°C
Humidity: 16%
Barometer: 29.79 inHg , 1008.8 hPa
Clouds: Few Clouds
Visibility: 10 miles , 16 km
Cloud details: Few Clouds 18000 ft
2019/09/19 03:54 KSLC 190354Z 14010KT 10SM FEW180 23/M04 A2979 RMK AO2 SLP043 T02281039
 
KU42 - Salt Lake Muni, Utah, USA
Distance from station: WSW 37mi, 59km
Updated: Wed, 18-Sep-2019 10:15pm MDT
Clear
Clear
 Wind from SE
Wind: SE 12 mph , 19 km/h
Temperature: 68°F , 20°C
Dew Point: 32°F , 0°C
Humidity: 26%
Barometer: 29.84 inHg , 1010.5 hPa
Clouds: Clear
Visibility: 10 miles , 16 km
2019/09/19 04:15 KU42 190415Z AUTO 14010KT 10SM CLR 20/00 A2984 RMK AO1 T02000000
KEVW - Evanston, Wyoming, USA
Distance from station: NNE 40mi, 64km
Updated: Wed, 18-Sep-2019 9:53pm MDT
Clear
Clear
 Wind from ESE
Wind: ESE 5 mph , 7 km/h
Temperature: 59°F , 15°C
Dew Point: 21°F , -6°C
Humidity: 23%
Barometer: 30.01 inHg , 1016.3 hPa
Clouds: Clear
Visibility: 10 miles , 16 km
2019/09/19 03:53 KEVW 190353Z AUTO 12004KT 10SM CLR 15/M06 A3001 RMK AO2 SLP092 T01501061
 
KPVU - Provo Muni, Utah, USA
Distance from station: SSW 41mi, 67km
Updated: Wed, 18-Sep-2019 9:56pm MDT
Clear
Clear
 Wind from ESE
Wind: ESE 6 mph , 9 km/h
Temperature: 63°F , 17°C
Dew Point: 39°F , 4°C
Humidity: 42%
Barometer: 29.86 inHg , 1011.2 hPa
Clouds: Clear
Visibility: 10 miles , 16 km
2019/09/19 03:56 KPVU 190356Z AUTO 12005KT 10SM CLR 17/04 A2986 RMK AO2 SLP075 T01670039
KHIF - Hill Afb/Ogden, Utah, USA
Distance from station: NW 45mi, 72km
Updated: Wed, 18-Sep-2019 9:58pm MDT
Clear
Clear
 Wind from SE
Wind: SE 7 mph , 11 km/h
Temperature: 68°F , 20°C
Dew Point: 25°F , -4°C
Humidity: 20%
Barometer: 29.82 inHg , 1009.8 hPa
Clouds: Clear
Visibility: 10 miles , 16 km
2019/09/19 03:58 KHIF 190358Z AUTO 13006KT 10SM CLR 20/M04 A2982 RMK AO2 SLP053 T01981038
 
KOGD - Ogden, Utah, USA
Distance from station: NW 50mi, 81km
Updated: Wed, 18-Sep-2019 9:53pm MDT
Clear
Clear
 Wind from SSE
Wind: SSE 9 mph , 15 km/h
Temperature: 63°F , 17°C
Dew Point: 28°F , -2°C
Humidity: 27%
Barometer: 29.80 inHg , 1009.1 hPa
Clouds: Clear
Visibility: 10 miles , 16 km
2019/09/19 03:53 KOGD 190353Z AUTO 16008KT 10SM CLR 17/M02 A2980 RMK AO2 SLP049 T01721017